Time;durP1;ratioP1;P1;durP2;ratioP2;P2;SDS_P1;SDS_P2;PMS_P1;PMS_P2;Temp;Humidity;BMP_temperature;BMP_pressure;BME280_temperature;BME280_humidity;BME280_pressure;Samples;Min_cycle;Max_cycle;Signal;HPM_P1;HPM_P2
2023/12/13 00:01:59;;;;;;;57.17;24.70;;;0.50;99.90;;;;;;4392424;28;658340;-72
2023/12/13 00:04:46;;;;;;;72.57;29.97;;;0.50;99.90;;;;;;4422343;28;658422;-72
2023/12/13 00:07:33;;;;;;;77.07;36.55;;;0.50;99.90;;;;;;4394329;28;657798;-72
2023/12/13 00:10:21;;;;;;;78.70;36.08;;;0.50;99.90;;;;;;4415574;28;658731;-72
2023/12/13 00:13:09;;;;;;;88.27;32.90;;;0.60;99.90;;;;;;4399027;28;657459;-72
2023/12/13 00:15:56;;;;;;;40.53;20.50;;;0.70;99.90;;;;;;4415407;28;657530;-72
2023/12/13 00:18:46;;;;;;;67.57;26.40;;;0.70;99.90;;;;;;4406109;28;658211;-72
2023/12/13 00:21:33;;;;;;;85.47;32.40;;;0.90;99.90;;;;;;4401343;28;657470;-72
2023/12/13 00:24:21;;;;;;;53.87;22.27;;;0.90;99.90;;;;;;4427219;28;658304;-72
2023/12/13 00:27:08;;;;;;;48.87;19.53;;;0.80;99.90;;;;;;4403165;28;657467;-72
2023/12/13 00:29:57;;;;;;;54.63;19.70;;;1.00;99.90;;;;;;4429222;28;658462;-72
2023/12/13 00:32:44;;;;;;;67.23;27.67;;;1.00;99.90;;;;;;4411884;28;658123;-72
2023/12/13 00:35:31;;;;;;;54.53;25.33;;;0.90;99.90;;;;;;4426839;28;657785;-72
2023/12/13 00:38:18;;;;;;;56.87;24.83;;;0.90;99.90;;;;;;4406465;28;657797;-72
2023/12/13 00:41:05;;;;;;;35.00;13.57;;;1.10;99.90;;;;;;4420922;28;658632;-72
2023/12/13 00:43:53;;;;;;;27.37;11.77;;;1.10;99.90;;;;;;4405612;28;658041;-72
2023/12/13 00:46:41;;;;;;;33.73;13.97;;;1.20;99.90;;;;;;4422252;28;658892;-72
2023/12/13 00:49:28;;;;;;;33.87;12.37;;;1.30;99.90;;;;;;4399232;28;657496;-72
2023/12/13 00:52:16;;;;;;;29.13;13.20;;;1.30;99.90;;;;;;4421827;28;657934;-72
2023/12/13 00:55:04;;;;;;;37.97;13.60;;;1.40;99.90;;;;;;4404166;28;657771;-72
2023/12/13 00:57:51;;;;;;;33.10;14.73;;;1.40;99.90;;;;;;4423765;28;657499;-72
2023/12/13 01:00:38;;;;;;;30.40;14.30;;;1.30;99.90;;;;;;4405385;28;658383;-72
2023/12/13 01:03:27;;;;;;;34.73;15.83;;;1.40;99.90;;;;;;4425343;28;658641;-72
2023/12/13 01:06:14;;;;;;;40.00;18.23;;;1.40;99.90;;;;;;4400283;28;659068;-72
2023/12/13 01:09:01;;;;;;;42.87;18.70;;;1.50;99.90;;;;;;4421266;28;657896;-72
2023/12/13 01:11:48;;;;;;;47.15;20.95;;;1.50;99.90;;;;;;4401683;28;658944;-72
2023/12/13 01:14:35;;;;;;;59.43;23.37;;;1.50;99.90;;;;;;4421424;28;658887;-72
2023/12/13 01:17:23;;;;;;;56.67;23.10;;;1.50;99.90;;;;;;4398976;28;657787;-72
2023/12/13 01:20:12;;;;;;;53.33;20.27;;;1.50;99.90;;;;;;4427034;28;658645;-72
2023/12/13 01:22:59;;;;;;;37.27;15.20;;;1.60;99.90;;;;;;4403226;28;658774;-72
2023/12/13 01:25:46;;;;;;;32.80;16.20;;;1.60;99.90;;;;;;4425288;28;657875;-72
2023/12/13 01:28:33;;;;;;;35.83;16.43;;;1.60;99.90;;;;;;4403835;28;658004;-72
2023/12/13 01:31:20;;;;;;;46.90;18.77;;;1.70;99.90;;;;;;4424986;28;657932;-72
2023/12/13 01:34:08;;;;;;;37.73;16.67;;;1.70;99.90;;;;;;4409519;28;657466;-72
2023/12/13 01:36:56;;;;;;;35.07;15.63;;;1.80;99.90;;;;;;4421603;28;658214;-72
2023/12/13 01:39:43;;;;;;;32.77;13.97;;;1.80;99.90;;;;;;4395596;28;657679;-72
2023/12/13 01:42:30;;;;;;;35.15;14.98;;;2.00;99.90;;;;;;4418276;28;658538;-72
2023/12/13 01:45:18;;;;;;;34.10;14.70;;;2.00;99.90;;;;;;4407547;28;658396;-72
2023/12/13 01:48:05;;;;;;;29.43;14.30;;;2.10;99.90;;;;;;4426480;28;657937;-72
2023/12/13 01:50:53;;;;;;;29.10;12.90;;;2.20;99.90;;;;;;4407222;28;657420;-72
2023/12/13 01:53:41;;;;;;;32.77;12.40;;;2.30;99.90;;;;;;4430514;28;658296;-72
2023/12/13 01:56:29;;;;;;;29.37;12.03;;;2.30;99.90;;;;;;4391349;28;657499;-72
2023/12/13 01:59:16;;;;;;;33.43;12.57;;;2.30;99.90;;;;;;4424329;28;660457;-72
2023/12/13 02:02:03;;;;;;;30.57;13.37;;;2.40;99.90;;;;;;4410184;28;657771;-72
2023/12/13 02:04:50;;;;;;;27.70;12.07;;;2.40;99.90;;;;;;4438922;28;658056;-72
2023/12/13 02:07:37;;;;;;;29.50;13.67;;;2.40;99.90;;;;;;4408194;28;657967;-72
2023/12/13 02:10:26;;;;;;;25.80;11.90;;;2.40;99.90;;;;;;4423120;28;658531;-72
2023/12/13 02:13:14;;;;;;;25.83;12.33;;;2.50;99.90;;;;;;4410923;28;658434;-72
2023/12/13 02:16:01;;;;;;;21.60;11.43;;;2.40;99.90;;;;;;4418473;28;657316;-72
2023/12/13 02:18:49;;;;;;;25.77;11.83;;;2.40;99.90;;;;;;4393942;28;658680;-72
2023/12/13 02:21:37;;;;;;;29.60;11.07;;;2.40;99.90;;;;;;4432237;28;657957;-72
2023/12/13 02:24:25;;;;;;;29.77;11.63;;;2.40;99.90;;;;;;4400332;28;657612;-72
2023/12/13 02:27:12;;;;;;;31.70;12.80;;;2.40;99.90;;;;;;4406887;28;658340;-72
2023/12/13 02:29:59;;;;;;;29.00;11.07;;;2.40;99.90;;;;;;4433923;28;657785;-72
2023/12/13 02:32:47;;;;;;;25.83;10.43;;;2.50;99.90;;;;;;4421090;28;658045;-72
2023/12/13 02:35:34;;;;;;;26.13;9.97;;;2.60;99.90;;;;;;4394300;28;657435;-72
2023/12/13 02:38:21;;;;;;;22.23;9.53;;;2.60;99.90;;;;;;4423246;28;656992;-72
2023/12/13 02:41:10;;;;;;;19.73;9.30;;;2.60;99.90;;;;;;4393660;28;656358;-72
2023/12/13 02:43:57;;;;;;;22.33;10.00;;;2.70;99.90;;;;;;4425414;28;656820;-72
2023/12/13 02:46:44;;;;;;;24.20;10.07;;;2.60;99.90;;;;;;4401878;28;658094;-72
2023/12/13 02:49:31;;;;;;;23.13;9.63;;;2.60;99.90;;;;;;4425209;28;658804;-72
2023/12/13 02:52:18;;;;;;;21.83;9.30;;;2.60;99.90;;;;;;4397913;28;657192;-72
2023/12/13 02:55:09;;;;;;;22.17;9.87;;;2.60;99.90;;;;;;4429641;28;657754;-72
2023/12/13 02:57:57;;;;;;;20.80;9.10;;;2.60;99.90;;;;;;4405372;28;656717;-72
2023/12/13 03:00:44;;;;;;;25.70;9.75;;;2.60;99.90;;;;;;4405293;28;658076;-72
2023/12/13 03:03:32;;;;;;;15.63;7.63;;;2.50;99.90;;;;;;4417862;28;656538;-72
2023/12/13 03:06:19;;;;;;;23.13;7.93;;;2.50;99.90;;;;;;4408090;28;657165;-72
2023/12/13 03:09:06;;;;;;;19.40;7.87;;;2.60;99.90;;;;;;4420994;28;656909;-72
2023/12/13 03:11:53;;;;;;;23.03;8.03;;;2.70;99.90;;;;;;4396902;28;657115;-72
2023/12/13 03:14:42;;;;;;;21.80;8.47;;;2.70;99.90;;;;;;4420176;28;656264;-72
2023/12/13 03:17:29;;;;;;;17.13;7.93;;;2.70;99.90;;;;;;4404000;28;656536;-72
2023/12/13 03:20:16;;;;;;;20.80;7.93;;;2.70;99.90;;;;;;4422954;28;657338;-72
2023/12/13 03:23:07;;;;;;;20.57;8.13;;;2.70;99.90;;;;;;4400398;28;657276;-72
2023/12/13 03:25:54;;;;;;;17.57;7.47;;;2.80;99.90;;;;;;4391837;28;657429;-71
2023/12/13 03:28:41;;;;;;;23.67;8.37;;;2.80;99.90;;;;;;4419771;28;656775;-72
2023/12/13 03:31:30;;;;;;;22.77;9.13;;;2.70;99.90;;;;;;4391994;28;656978;-72
2023/12/13 03:34:17;;;;;;;23.00;9.88;;;2.70;99.90;;;;;;4400477;28;657304;-72
2023/12/13 03:37:06;;;;;;;26.60;10.03;;;2.80;99.90;;;;;;4419159;28;657249;-72
2023/12/13 03:39:53;;;;;;;26.63;10.70;;;2.70;99.90;;;;;;4397945;28;658338;-72
2023/12/13 03:42:41;;;;;;;27.90;10.77;;;2.70;99.90;;;;;;4416419;28;659151;-72
2023/12/13 03:45:28;;;;;;;26.40;11.50;;;2.70;99.90;;;;;;4392939;28;657838;-72
2023/12/13 03:48:16;;;;;;;31.97;12.77;;;2.70;99.90;;;;;;4424732;28;656528;-72
2023/12/13 03:51:04;;;;;;;26.17;12.27;;;2.80;99.90;;;;;;4398050;28;657615;-72
2023/12/13 03:53:51;;;;;;;23.55;11.35;;;2.80;99.90;;;;;;4419175;28;657915;-71
2023/12/13 03:56:39;;;;;;;27.13;12.10;;;2.80;99.90;;;;;;4393854;28;657723;-72
2023/12/13 03:59:26;;;;;;;25.23;9.57;;;2.80;99.90;;;;;;4419010;28;658959;-72
2023/12/13 04:02:13;;;;;;;21.93;9.67;;;2.80;99.90;;;;;;4402748;28;656265;-72
2023/12/13 04:05:02;;;;;;;19.03;8.53;;;2.90;99.90;;;;;;4433288;28;656739;-72
2023/12/13 04:07:49;;;;;;;30.73;9.57;;;2.90;99.90;;;;;;4401061;28;656235;-72
2023/12/13 04:10:36;;;;;;;25.43;9.93;;;2.90;99.90;;;;;;4428117;28;656562;-72
2023/12/13 04:13:23;;;;;;;25.73;9.17;;;2.80;99.90;;;;;;4398689;28;656823;-72
2023/12/13 04:16:10;;;;;;;21.50;8.67;;;2.90;99.90;;;;;;4428081;28;657541;-72
2023/12/13 04:18:58;;;;;;;24.30;8.77;;;2.90;99.90;;;;;;4407034;28;657013;-72
2023/12/13 04:21:46;;;;;;;28.77;10.27;;;2.90;99.90;;;;;;4428618;28;657100;-72
2023/12/13 04:24:33;;;;;;;29.27;9.77;;;2.90;99.90;;;;;;4412639;28;657973;-72
2023/12/13 04:27:21;;;;;;;22.87;9.17;;;2.90;99.90;;;;;;4422879;28;657230;-72
2023/12/13 04:30:11;;;;;;;27.67;10.40;;;3.00;99.90;;;;;;4401900;28;656501;-72
2023/12/13 04:32:58;;;;;;;36.33;11.80;;;2.90;99.90;;;;;;4397980;28;657759;-72
2023/12/13 04:35:45;;;;;;;40.43;13.60;;;3.00;99.90;;;;;;4426385;28;657843;-71
2023/12/13 04:38:34;;;;;;;50.27;15.30;;;3.00;99.90;;;;;;4405798;28;658525;-72
2023/12/13 04:41:21;;;;;;;44.80;16.00;;;3.00;99.90;;;;;;4421669;28;657589;-72
2023/12/13 04:44:09;;;;;;;55.50;21.63;;;3.00;99.90;;;;;;4404316;28;657506;-72
2023/12/13 04:46:56;;;;;;;80.73;30.83;;;3.00;99.90;;;;;;4420378;28;657136;-72
2023/12/13 04:49:43;;;;;;;55.57;22.90;;;3.00;99.90;;;;;;4404741;28;657420;-71
2023/12/13 04:52:31;;;;;;;64.13;27.00;;;3.00;99.90;;;;;;4426631;28;658526;-72
2023/12/13 04:55:19;;;;;;;103.53;32.77;;;2.90;99.90;;;;;;4408487;28;657037;-72
2023/12/13 04:58:06;;;;;;;143.80;37.87;;;3.00;99.90;;;;;;4417001;28;658719;-72
2023/12/13 05:00:54;;;;;;;52.43;16.97;;;3.00;99.90;;;;;;4404114;28;659555;-72
2023/12/13 05:03:41;;;;;;;24.27;10.27;;;3.00;99.90;;;;;;4429353;28;658463;-72
2023/12/13 05:06:28;;;;;;;19.17;7.87;;;3.10;99.90;;;;;;4403570;28;658168;-72
2023/12/13 05:09:15;;;;;;;15.33;7.50;;;3.20;99.90;;;;;;4427426;28;657126;-72
2023/12/13 05:12:04;;;;;;;17.13;7.37;;;3.20;99.90;;;;;;4407030;28;656789;-71
2023/12/13 05:14:52;;;;;;;20.87;10.00;;;3.20;99.90;;;;;;4422976;28;656277;-72
2023/12/13 05:17:39;;;;;;;17.23;8.07;;;3.20;99.90;;;;;;4391504;28;658279;-72
2023/12/13 05:20:26;;;;;;;17.57;7.37;;;3.10;99.90;;;;;;4409559;28;656469;-72
2023/12/13 05:23:14;;;;;;;17.67;7.40;;;3.20;99.90;;;;;;4386424;28;657268;-72
2023/12/13 05:26:01;;;;;;;16.50;8.27;;;3.20;99.90;;;;;;4413203;28;656564;-72
2023/12/13 05:28:50;;;;;;;16.77;7.40;;;3.10;99.90;;;;;;4394074;28;656495;-72
2023/12/13 05:31:37;;;;;;;25.77;11.43;;;3.10;99.90;;;;;;4419135;28;656875;-72
2023/12/13 05:34:24;;;;;;;20.40;9.40;;;3.20;99.90;;;;;;4387183;28;657856;-72
2023/12/13 05:37:11;;;;;;;19.57;8.90;;;3.10;99.90;;;;;;4414261;28;656939;-72
2023/12/13 05:39:58;;;;;;;17.65;8.13;;;3.10;99.90;;;;;;4383715;28;656829;-72
2023/12/13 05:42:45;;;;;;;17.77;9.33;;;3.10;99.90;;;;;;4407133;28;656521;-72
2023/12/13 05:45:34;;;;;;;20.43;9.27;;;3.10;99.90;;;;;;4395665;28;656523;-72
2023/12/13 05:48:21;;;;;;;22.40;9.83;;;3.10;99.90;;;;;;4416488;28;656281;-72
2023/12/13 05:51:08;;;;;;;20.93;10.57;;;3.10;99.90;;;;;;4388627;28;656946;-71
2023/12/13 05:53:56;;;;;;;26.90;12.10;;;3.00;99.90;;;;;;4404447;28;657912;-72
2023/12/13 05:56:44;;;;;;;27.60;13.27;;;3.00;99.90;;;;;;4385310;28;657836;-72
2023/12/13 05:59:31;;;;;;;26.90;13.17;;;3.00;99.90;;;;;;4407469;28;658509;-72
2023/12/13 06:02:20;;;;;;;24.93;11.53;;;3.00;99.90;;;;;;4390463;28;657890;-72
2023/12/13 06:05:09;;;;;;;24.93;11.00;;;3.00;99.90;;;;;;4402424;28;657715;-72
2023/12/13 06:07:56;;;;;;;24.00;9.97;;;2.90;99.90;;;;;;4406935;28;658941;-71
2023/12/13 06:10:43;;;;;;;23.37;10.40;;;2.90;99.90;;;;;;4386052;28;656463;-71
2023/12/13 06:13:30;;;;;;;21.67;10.20;;;2.90;99.90;;;;;;4415994;28;657743;-72
2023/12/13 06:16:17;;;;;;;24.70;11.20;;;2.80;99.90;;;;;;4395544;28;659538;-71
2023/12/13 06:19:06;;;;;;;26.43;11.60;;;2.80;99.90;;;;;;4422244;28;657277;-72
2023/12/13 06:21:53;;;;;;;26.07;11.93;;;2.80;99.90;;;;;;4400831;28;657860;-72
2023/12/13 06:24:40;;;;;;;23.90;11.17;;;2.90;99.90;;;;;;4417387;28;658555;-72
2023/12/13 06:27:28;;;;;;;24.27;10.30;;;2.70;99.90;;;;;;4408689;28;657550;-72
2023/12/13 06:30:15;;;;;;;30.63;11.73;;;2.70;99.90;;;;;;4424137;28;658468;-72
2023/12/13 06:33:03;;;;;;;27.13;12.20;;;2.70;99.90;;;;;;4403443;28;657525;-72
2023/12/13 06:35:52;;;;;;;25.73;11.50;;;2.70;99.90;;;;;;4421174;28;659003;-72
2023/12/13 06:38:39;;;;;;;21.70;10.47;;;2.70;99.90;;;;;;4399722;28;657788;-72
2023/12/13 06:41:26;;;;;;;22.90;10.80;;;2.70;99.90;;;;;;4416510;28;657480;-72
2023/12/13 06:44:13;;;;;;;23.60;10.73;;;2.60;99.90;;;;;;4396895;28;657554;-72
2023/12/13 06:47:00;;;;;;;30.03;11.97;;;2.70;99.90;;;;;;4417241;28;657812;-72
2023/12/13 06:49:47;;;;;;;23.63;11.40;;;2.70;99.90;;;;;;4399258;28;658883;-72
2023/12/13 06:52:36;;;;;;;21.77;9.27;;;2.60;99.90;;;;;;4417636;28;658967;-72
2023/12/13 06:55:23;;;;;;;25.97;10.00;;;2.70;99.90;;;;;;4404539;28;656638;-73
2023/12/13 06:58:10;;;;;;;27.33;11.10;;;2.60;99.90;;;;;;4412381;28;658683;-72
2023/12/13 07:00:57;;;;;;;167.83;20.57;;;2.60;99.90;;;;;;4401840;28;657874;-72
2023/12/13 07:03:45;;;;;;;36.33;15.00;;;2.70;99.90;;;;;;4413926;28;659460;-72
2023/12/13 07:06:32;;;;;;;29.70;13.60;;;2.70;99.90;;;;;;4419100;28;658425;-73
2023/12/13 07:09:20;;;;;;;27.47;12.87;;;2.70;99.90;;;;;;4402022;28;659100;-73
2023/12/13 07:12:08;;;;;;;27.80;13.20;;;2.80;99.90;;;;;;4402382;28;657864;-72
2023/12/13 07:14:56;;;;;;;27.50;13.43;;;2.80;99.90;;;;;;4416404;28;658726;-73
2023/12/13 07:17:43;;;;;;;23.83;10.23;;;2.80;99.90;;;;;;4396928;28;658077;-73
2023/12/13 07:20:31;;;;;;;24.37;11.33;;;2.80;99.90;;;;;;4420919;28;658059;-70
2023/12/13 07:23:18;;;;;;;28.87;14.17;;;2.80;99.90;;;;;;4394492;28;657712;-71
2023/12/13 07:26:07;;;;;;;44.93;20.80;;;2.80;99.90;;;;;;4420570;28;658607;-70
2023/12/13 07:28:55;;;;;;;39.37;17.73;;;2.80;99.90;;;;;;4392782;28;658806;-70
2023/12/13 07:31:42;;;;;;;32.50;14.17;;;2.80;99.90;;;;;;4414600;28;657705;-71
2023/12/13 07:34:29;;;;;;;34.13;12.63;;;2.80;99.90;;;;;;4420102;28;658173;-71
2023/12/13 07:37:17;;;;;;;35.70;14.57;;;2.90;99.90;;;;;;4416661;28;657514;-71
2023/12/13 07:40:06;;;;;;;36.97;15.27;;;3.00;99.90;;;;;;4404543;28;658032;-70
2023/12/13 07:42:55;;;;;;;41.53;15.53;;;3.00;99.90;;;;;;4402259;28;657923;-71
2023/12/13 07:45:43;;;;;;;35.50;13.70;;;3.00;99.90;;;;;;4418076;28;657602;-71
2023/12/13 07:48:30;;;;;;;37.73;13.87;;;3.00;99.90;;;;;;4421567;28;658813;-72
2023/12/13 07:51:18;;;;;;;34.00;13.25;;;3.00;99.90;;;;;;4412788;28;657903;-71
2023/12/13 07:54:05;;;;;;;27.93;13.03;;;3.10;99.90;;;;;;4419754;28;659093;-71
2023/12/13 07:56:53;;;;;;;22.17;10.00;;;3.00;99.90;;;;;;4400523;28;657510;-72
2023/12/13 07:59:41;;;;;;;39.20;18.87;;;3.10;99.90;;;;;;4432125;28;658309;-71
2023/12/13 08:02:30;;;;;;;27.20;13.47;;;3.10;99.90;;;;;;4401613;28;659613;-71
2023/12/13 08:05:19;;;;;;;44.63;20.73;;;3.10;99.90;;;;;;4421177;28;657293;-71
2023/12/13 08:08:07;;;;;;;34.90;15.17;;;3.10;99.90;;;;;;4419317;28;657806;-71
2023/12/13 08:10:54;;;;;;;23.60;11.57;;;3.10;99.90;;;;;;4402601;28;657567;-70
2023/12/13 08:13:42;;;;;;;22.83;10.90;;;3.10;99.90;;;;;;4421053;28;657819;-71
2023/12/13 08:16:30;;;;;;;23.77;12.43;;;3.10;99.90;;;;;;4394162;28;659017;-71
2023/12/13 08:19:18;;;;;;;38.13;16.57;;;3.00;99.90;;;;;;4399336;28;658171;-70
2023/12/13 08:22:05;;;;;;;46.37;20.93;;;3.00;99.90;;;;;;4418023;28;658507;-71
2023/12/13 08:24:52;;;;;;;50.00;21.75;;;3.00;99.90;;;;;;4403331;28;659476;-71
2023/12/13 08:27:40;;;;;;;35.23;17.60;;;3.00;99.90;;;;;;4425687;28;658128;-71
2023/12/13 08:30:27;;;;;;;31.53;17.00;;;3.00;99.90;;;;;;4420252;28;658075;-71
2023/12/13 08:33:15;;;;;;;33.47;17.67;;;3.00;99.90;;;;;;4401193;28;657686;-70
2023/12/13 08:36:04;;;;;;;45.77;19.97;;;3.00;99.90;;;;;;4396054;28;657730;-70
2023/12/13 08:38:51;;;;;;;45.67;21.47;;;3.00;99.90;;;;;;4422969;28;658316;-71
2023/12/13 08:41:39;;;;;;;35.57;17.20;;;3.10;99.90;;;;;;4400086;28;657334;-71
2023/12/13 08:44:26;;;;;;;33.77;16.27;;;3.20;99.90;;;;;;4418604;28;658386;-70
2023/12/13 08:47:14;;;;;;;39.23;19.03;;;3.10;99.90;;;;;;4394549;28;658372;-70
2023/12/13 08:50:03;;;;;;;49.47;23.93;;;3.10;99.90;;;;;;4418428;28;657522;-71
2023/12/13 08:52:50;;;;;;;41.23;19.93;;;3.20;99.90;;;;;;4393420;28;658681;-71
2023/12/13 08:55:38;;;;;;;39.23;16.83;;;3.20;99.90;;;;;;4422193;28;657828;-71
2023/12/13 08:58:25;;;;;;;29.90;15.20;;;3.30;99.90;;;;;;4418501;28;658868;-72
2023/12/13 09:01:13;;;;;;;30.83;14.17;;;3.30;99.90;;;;;;4395303;28;657678;-71
2023/12/13 09:04:00;;;;;;;27.33;13.10;;;3.30;99.90;;;;;;4413881;28;657596;-71
2023/12/13 09:06:49;;;;;;;35.87;15.60;;;3.40;99.90;;;;;;4402989;28;658412;-71
2023/12/13 09:09:37;;;;;;;26.40;12.57;;;3.40;99.90;;;;;;4417575;28;657790;-70
2023/12/13 09:12:24;;;;;;;30.90;15.33;;;3.40;99.90;;;;;;4396257;28;657922;-71
2023/12/13 09:15:11;;;;;;;28.03;13.60;;;3.50;99.90;;;;;;4414877;28;658100;-71
2023/12/13 09:17:59;;;;;;;34.27;15.27;;;3.50;99.90;;;;;;4400039;28;657296;-71
2023/12/13 09:20:46;;;;;;;47.50;20.57;;;3.60;99.90;;;;;;4419507;28;657663;-70
2023/12/13 09:23:36;;;;;;;43.00;20.77;;;3.60;99.90;;;;;;4397194;28;657517;-71
2023/12/13 09:26:23;;;;;;;30.27;15.20;;;3.60;99.90;;;;;;4397534;28;657965;-71
2023/12/13 09:29:10;;;;;;;26.93;13.00;;;3.60;99.90;;;;;;4425720;28;658812;-71
2023/12/13 09:32:00;;;;;;;35.63;19.63;;;3.60;99.90;;;;;;4404132;28;657342;-71
2023/12/13 09:34:47;;;;;;;48.55;29.45;;;3.60;99.90;;;;;;4396213;28;657853;-71
2023/12/13 09:37:35;;;;;;;33.93;16.93;;;3.60;99.90;;;;;;4420236;28;657941;-71
2023/12/13 09:40:24;;;;;;;34.33;12.47;;;3.60;99.90;;;;;;4419983;28;658056;-71
2023/12/13 09:43:12;;;;;;;31.43;13.57;;;3.60;99.90;;;;;;4417876;28;657898;-71
2023/12/13 09:45:59;;;;;;;36.37;16.23;;;3.60;99.90;;;;;;4391430;28;659064;-71
2023/12/13 09:48:46;;;;;;;38.00;16.03;;;3.60;99.90;;;;;;4413205;28;658002;-71
2023/12/13 09:51:34;;;;;;;38.03;16.77;;;3.60;99.90;;;;;;4384995;28;657198;-71
2023/12/13 09:54:21;;;;;;;31.67;13.43;;;3.70;99.90;;;;;;4430443;28;658333;-71
2023/12/13 09:57:09;;;;;;;37.70;14.83;;;3.70;99.90;;;;;;4407436;28;657886;-72
2023/12/13 09:59:56;;;;;;;28.80;13.23;;;3.70;99.90;;;;;;4423087;28;658173;-71
2023/12/13 10:02:45;;;;;;;26.83;12.20;;;3.80;99.90;;;;;;4404747;28;657991;-71
2023/12/13 10:05:33;;;;;;;27.67;12.43;;;3.90;99.90;;;;;;4402081;28;658402;-71
2023/12/13 10:08:20;;;;;;;25.40;11.57;;;3.90;99.90;;;;;;4424361;28;658355;-71
2023/12/13 10:11:08;;;;;;;27.23;12.27;;;4.00;99.90;;;;;;4418110;28;657815;-71
2023/12/13 10:13:57;;;;;;;30.40;13.40;;;4.00;99.90;;;;;;4415282;28;658659;-72
2023/12/13 10:16:44;;;;;;;44.30;20.23;;;4.00;99.90;;;;;;4407606;28;657701;-71
2023/12/13 10:19:32;;;;;;;47.87;21.80;;;4.10;99.90;;;;;;4419633;28;658295;-72
2023/12/13 10:22:19;;;;;;;41.60;18.90;;;4.10;99.90;;;;;;4399634;28;657893;-72
2023/12/13 10:25:07;;;;;;;43.03;20.90;;;4.20;99.90;;;;;;4413298;28;657840;-72
2023/12/13 10:27:54;;;;;;;37.80;18.03;;;4.30;99.90;;;;;;4396486;28;657836;-72
2023/12/13 10:30:43;;;;;;;36.43;15.27;;;4.40;99.90;;;;;;4416971;28;657809;-72
2023/12/13 10:33:30;;;;;;;31.37;15.17;;;4.40;99.90;;;;;;4393129;28;658581;-72
2023/12/13 10:36:17;;;;;;;28.83;14.17;;;4.40;99.90;;;;;;4413645;28;658526;-72
2023/12/13 10:39:05;;;;;;;34.33;15.20;;;4.40;99.90;;;;;;4416580;28;658814;-72
2023/12/13 10:41:54;;;;;;;38.25;16.75;;;4.50;99.90;;;;;;4396124;28;657700;-72
2023/12/13 10:44:41;;;;;;;34.20;17.07;;;4.50;99.90;;;;;;4415098;28;657754;-72
2023/12/13 10:47:30;;;;;;;31.83;15.27;;;4.60;99.90;;;;;;4399258;28;657853;-71
2023/12/13 10:50:18;;;;;;;36.13;16.50;;;4.60;99.90;;;;;;4411593;28;658061;-72
2023/12/13 10:53:05;;;;;;;31.90;16.00;;;4.70;99.90;;;;;;4417923;28;658447;-72
2023/12/13 10:55:53;;;;;;;32.30;16.13;;;4.80;99.90;;;;;;4420881;28;658546;-72
2023/12/13 10:58:40;;;;;;;31.93;15.10;;;4.90;99.90;;;;;;4419364;28;657210;-72
2023/12/13 11:01:28;;;;;;;44.27;19.57;;;4.90;99.90;;;;;;4404135;28;657386;-72
2023/12/13 11:04:17;;;;;;;37.90;16.47;;;4.90;99.90;;;;;;4416300;28;658062;-72
2023/12/13 11:07:04;;;;;;;27.70;12.97;;;5.10;99.90;;;;;;4389261;28;659352;-72
2023/12/13 11:09:52;;;;;;;23.30;11.20;;;5.20;99.90;;;;;;4420874;28;656707;-72
2023/12/13 11:12:47;;;;;;;21.27;11.33;;;5.20;99.90;;;;;;4390072;28;658902;-71
2023/12/13 11:15:42;;;;;;;27.93;13.63;;;5.40;99.90;;;;;;4376522;28;658787;-72
2023/12/13 11:18:30;;;;;;;28.80;13.83;;;5.50;99.90;;;;;;4374193;28;658109;-72
2023/12/13 11:21:26;;;;;;;34.03;16.43;;;5.70;99.90;;;;;;4395206;28;658688;-72
2023/12/13 11:24:15;;;;;;;23.77;11.70;;;5.90;99.90;;;;;;4375641;28;659380;-72
2023/12/13 11:27:09;;;;;;;20.27;10.00;;;6.40;99.90;;;;;;4401272;28;657821;-72
2023/12/13 11:29:56;;;;;;;20.97;10.50;;;6.90;99.90;;;;;;4397410;28;657326;-72
2023/12/13 11:32:44;;;;;;;19.87;10.50;;;7.50;99.90;;;;;;4400487;28;657428;-71
2023/12/13 11:35:31;;;;;;;28.90;12.67;;;7.90;99.90;;;;;;4416478;28;657860;-72
2023/12/13 11:38:20;;;;;;;32.60;14.07;;;7.70;99.90;;;;;;4401467;28;657247;-72
2023/12/13 11:41:07;;;;;;;26.13;11.07;;;7.60;99.90;;;;;;4409577;28;657861;-71
2023/12/13 11:43:55;;;;;;;23.20;10.53;;;7.50;99.90;;;;;;4416063;28;657140;-72
2023/12/13 11:46:42;;;;;;;33.10;14.60;;;7.40;99.90;;;;;;4417057;28;657830;-72
2023/12/13 11:49:29;;;;;;;34.80;15.60;;;7.30;99.90;;;;;;4400292;28;657489;-73
2023/12/13 11:52:17;;;;;;;33.53;15.00;;;7.20;99.90;;;;;;4421117;28;657449;-72
2023/12/13 11:55:07;;;;;;;34.17;18.07;;;7.00;99.90;;;;;;4399585;28;658556;-72
2023/12/13 11:57:58;;;;;;;24.20;11.27;;;6.80;99.90;;;;;;4392051;28;659041;-72
2023/12/13 12:00:45;;;;;;;17.97;10.17;;;6.80;99.90;;;;;;4397294;28;658354;-72
2023/12/13 12:03:32;;;;;;;18.27;9.93;;;6.60;99.90;;;;;;4408691;28;657922;-71
2023/12/13 12:06:20;;;;;;;18.13;9.70;;;6.50;99.90;;;;;;4425121;28;656531;-72
2023/12/13 12:09:07;;;;;;;22.10;10.47;;;6.40;99.90;;;;;;4418105;28;656507;-72
2023/12/13 12:11:57;;;;;;;16.93;8.60;;;6.20;99.90;;;;;;4410004;28;657341;-72
2023/12/13 12:14:47;;;;;;;26.10;12.43;;;6.10;99.90;;;;;;4404435;28;657362;-72
2023/12/13 12:17:34;;;;;;;18.93;9.50;;;6.00;99.90;;;;;;4386694;28;658866;-72
2023/12/13 12:20:22;;;;;;;18.60;9.75;;;6.00;99.90;;;;;;4426699;28;657095;-72
2023/12/13 12:23:10;;;;;;;17.33;9.63;;;5.90;99.90;;;;;;4396628;28;657519;-72
2023/12/13 12:25:57;;;;;;;15.97;8.30;;;5.70;99.90;;;;;;4394101;28;656926;-71
2023/12/13 12:28:47;;;;;;;16.93;8.73;;;5.70;99.90;;;;;;4425535;28;656587;-72
2023/12/13 12:31:34;;;;;;;17.73;8.63;;;5.60;99.90;;;;;;4400510;28;657316;-72
2023/12/13 12:34:22;;;;;;;20.20;9.37;;;5.50;99.90;;;;;;4422188;28;657316;-72
2023/12/13 12:37:09;;;;;;;21.10;10.20;;;5.30;99.90;;;;;;4409705;28;657152;-72
2023/12/13 12:39:56;;;;;;;22.17;9.57;;;5.20;99.90;;;;;;4441071;28;656929;-71
2023/12/13 12:42:45;;;;;;;20.07;10.03;;;5.20;99.90;;;;;;4405729;28;656422;-72
2023/12/13 12:45:34;;;;;;;23.80;12.00;;;5.10;99.90;;;;;;4413828;28;657984;-71
2023/12/13 12:48:21;;;;;;;22.73;11.10;;;5.00;99.90;;;;;;4422594;28;657215;-71
2023/12/13 12:51:09;;;;;;;24.03;13.13;;;4.90;99.90;;;;;;4396838;28;657523;-71
2023/12/13 12:53:56;;;;;;;27.10;14.00;;;4.90;99.90;;;;;;4424228;28;658860;-72
2023/12/13 12:56:43;;;;;;;25.53;13.30;;;4.90;99.90;;;;;;4397493;28;657389;-75
2023/12/13 12:59:30;;;;;;;23.53;14.23;;;5.00;99.90;;;;;;4421991;28;658813;-72
2023/12/13 13:02:19;;;;;;;33.40;16.40;;;5.00;99.90;;;;;;4399603;28;657898;-72
2023/12/13 13:05:07;;;;;;;30.60;16.20;;;5.00;99.90;;;;;;4419904;28;657719;-72
2023/12/13 13:07:54;;;;;;;33.40;17.13;;;4.90;99.90;;;;;;4402111;28;658173;-72
2023/12/13 13:10:41;;;;;;;33.83;17.07;;;4.90;99.90;;;;;;4428465;28;657200;-73
2023/12/13 13:13:28;;;;;;;32.47;16.73;;;4.90;99.90;;;;;;4402010;28;657724;-72
2023/12/13 13:16:15;;;;;;;33.87;17.33;;;4.90;99.90;;;;;;4414751;28;657295;-72
2023/12/13 13:19:05;;;;;;;31.67;16.67;;;4.90;99.90;;;;;;4394625;28;657674;-72
2023/12/13 13:21:52;;;;;;;33.23;18.00;;;4.90;99.90;;;;;;4414192;28;657856;-71
2023/12/13 13:24:40;;;;;;;40.43;21.17;;;4.80;99.90;;;;;;4430457;28;657920;-72
2023/12/13 13:27:27;;;;;;;40.93;21.27;;;4.70;99.90;;;;;;4421600;28;657625;-72
2023/12/13 13:30:15;;;;;;;42.57;22.63;;;4.60;99.90;;;;;;4420851;28;658043;-72
2023/12/13 13:33:02;;;;;;;44.97;21.67;;;4.70;99.90;;;;;;4412923;28;658009;-72
2023/12/13 13:35:51;;;;;;;46.70;21.70;;;4.60;99.90;;;;;;4415506;28;658475;-72
2023/12/13 13:38:38;;;;;;;52.00;24.23;;;4.60;99.90;;;;;;4396006;28;657722;-72
2023/12/13 13:41:28;;;;;;;55.33;27.93;;;4.70;99.90;;;;;;4416603;28;657777;-72
2023/12/13 13:44:15;;;;;;;63.07;29.57;;;4.70;99.90;;;;;;4400132;28;658953;-72
2023/12/13 13:47:03;;;;;;;77.00;34.60;;;4.70;99.90;;;;;;4396971;28;658134;-72
2023/12/13 13:49:50;;;;;;;53.70;27.07;;;4.60;99.90;;;;;;4420768;28;658311;-72
2023/12/13 13:52:39;;;;;;;62.90;29.77;;;4.60;99.90;;;;;;4412664;28;657689;-72
2023/12/13 13:55:26;;;;;;;63.97;30.57;;;4.60;99.90;;;;;;4417774;28;657193;-72
2023/12/13 13:58:14;;;;;;;66.77;31.80;;;4.50;99.90;;;;;;4397725;28;657676;-72
2023/12/13 14:01:01;;;;;;;72.13;34.60;;;4.40;99.90;;;;;;4414346;28;657728;-73
2023/12/13 14:03:48;;;;;;;61.23;31.80;;;4.40;99.90;;;;;;4399421;28;658246;-72
2023/12/13 14:06:36;;;;;;;52.40;26.83;;;4.30;99.90;;;;;;4416634;28;659648;-72
2023/12/13 14:09:24;;;;;;;69.13;30.00;;;4.20;99.90;;;;;;4397152;28;658134;-72
2023/12/13 14:12:11;;;;;;;58.67;28.00;;;4.20;99.90;;;;;;4413017;28;657776;-72